Cincinnati, Ohio
Traffic Map
Current Weather Conditions
Cincinnati, Ohio
Broken Clouds
Broken Clouds
65°
Feels Like: 65°
Wind Chill: 65° Ceiling: 3200
Heat Index: 65° Visibility: 10mi
Dew Point: 57° Wind: 8mph
Humidity: 75% Direction: 200° (SSW)
Pressure: 30.02in Gusts: 0mph
Raw Report DataKLUK 011853Z 20007KT 10SM BKN032 BKN043 18/14 A3002 RMK AO2 SLP164 T01830139
Traffic Incident Summary
Active as of:
Severity:
Category:
InformationThere was an issue retrieving the traffic information for this location. Please try a different location or try again shortly.
Advertisements
Track Severe Weather on mobile